OOCL California — VRWC8 — position and weather

sailwx.info

Track history (hours):
 
Tides and Currents Weather Stations Pressure Air Temp Water Temp Dewpoint Dewpoint Depression Visibility Wind Speed Wind Dir Waves Ship Positions

OOCL California

Last reported at 2016-Feb-01 20:11 UTC. Time now 2016-Feb-10 20:11 UTC.
Position N 01°13' E 103°40'.
Warning: this ship's position is 8 days out of date.

Length 276 m; beam 40 m; draft 14 m.

Type: Cargo ship. MMSI: 477704000.

Date/timePositionNaut miles runAvg speedWind from/ knotsBaromVisibWave heightAir tempDewpointWater temp
2016-Feb-01 20:11N 01°13' E 103°40'710.6
2016-Feb-01 19:33N 01°17' E 103°45'0 0.2
2016-Feb-01 18:29N 01°17' E 103°46'0 0.0
2016-Feb-01 17:30N 01°17' E 103°46'0 0.0
2016-Feb-01 16:32N 01°17' E 103°46'0 0.0
2016-Feb-01 15:32N 01°17' E 103°46'0 0.0
2016-Feb-01 14:32N 01°17' E 103°46'0 0.0
2016-Feb-01 13:29N 01°17' E 103°46'0 0.0
2016-Feb-01 12:29N 01°17' E 103°46'0 0.0
2016-Feb-01 11:29N 01°17' E 103°46'0 0.0
2016-Feb-01 10:32N 01°17' E 103°46'0 0.0
2016-Feb-01 09:32N 01°17' E 103°46'0 0.0
2016-Feb-01 08:20N 01°17' E 103°46'0 0.0
2016-Feb-01 06:32N 01°17' E 103°46'0 0.0
2016-Feb-01 05:29N 01°17' E 103°46'0 0.0
2016-Feb-01 04:29N 01°17' E 103°46'0 0.0
2016-Feb-01 03:32N 01°17' E 103°46'0 0.0
2016-Feb-01 02:32N 01°17' E 103°46'0 0.0
2016-Feb-01 01:32N 01°17' E 103°46'0 0.5
2016-Feb-01 00:33N 01°17' E 103°45'8 7.6
2016-Jan-31 23:33N 01°12' E 103°51'10 9.6
2016-Jan-31 22:33N 01°15' E 104°00'  
2016-Jan-28 13:32N 22°09' E 114°12'1111.2
2016-Jan-28 12:33N 22°19' E 114°05'10 9.6
2016-Jan-28 11:33N 22°21' E 113°55'7 0.4
2016-Jan-27 18:33N 22°21' E 114°03'1110.5
2016-Jan-27 17:30N 22°13' E 114°10'1414.3
2016-Jan-27 16:32N 22°08' E 114°24'24318.8
2016-Jan-27 03:33N 23°53' E 118°23'4815.4
2016-Jan-27 00:28N 24°24' E 119°02'1414.8
2016-Jan-26 23:30N 24°33' E 119°15'346 8.6
2016-Jan-25 07:29N 29°46' E 122°00'0 0.0
2016-Jan-25 06:18N 29°46' E 122°00'0 0.0
2016-Jan-25 05:33N 29°46' E 122°00'0 0.0
2016-Jan-25 04:29N 29°46' E 122°00'0 0.1
2016-Jan-25 03:29N 29°46' E 122°00'0 0.1
2016-Jan-25 02:33N 29°46' E 122°00'0 0.0
2016-Jan-25 01:31N 29°46' E 122°00'0 0.0
2016-Jan-25 00:33N 29°46' E 122°00'0 0.0
2016-Jan-24 23:33N 29°46' E 122°00'0 0.1
2016-Jan-24 22:33N 29°46' E 122°00'0 0.1
2016-Jan-24 21:32N 29°46' E 122°00'0 0.0
2016-Jan-24 20:33N 29°46' E 122°00'0 0.0
2016-Jan-24 19:33N 29°46' E 122°00'0 0.0
2016-Jan-24 18:33N 29°46' E 122°00'1 1.5
2016-Jan-24 17:33N 29°47' E 122°02'1010.4
2016-Jan-24 16:33N 29°50' E 122°13'9 9.1
2016-Jan-24 15:33N 29°45' E 122°22'6 1.0
2016-Jan-24 09:29N 29°48' E 122°28'3 3.2
2016-Jan-24 08:33N 29°46' E 122°30'1 1.0
2016-Jan-24 07:33N 29°45' E 122°29'1 0.7
2016-Jan-24 06:32N 29°45' E 122°30'0 0.1
2016-Jan-24 05:34N 29°45' E 122°30'1 0.6
2016-Jan-24 04:33N 29°45' E 122°30'0 0.4
2016-Jan-24 03:32N 29°45' E 122°30'1 0.5
2016-Jan-24 02:12N 29°46' E 122°29'0 0.1
2016-Jan-24 00:15N 29°46' E 122°29'2 3.5
2016-Jan-23 23:33N 29°44' E 122°28'2 1.6
2016-Jan-23 22:33N 29°45' E 122°29'1 0.8
2016-Jan-23 21:29N 29°46' E 122°29'0 0.3
2016-Jan-23 20:29N 29°46' E 122°30'0 0.4
2016-Jan-23 19:33N 29°45' E 122°30'0 0.2
2016-Jan-23 18:28N 29°45' E 122°29'1 1.1
2016-Jan-23 17:33N 29°45' E 122°30'0 0.1
2016-Jan-23 16:21N 29°45' E 122°30'1 1.5
2016-Jan-23 15:32N 29°46' E 122°29'0 0.2
2016-Jan-23 14:20N 29°46' E 122°29'1 0.3
2016-Jan-23 12:07N 29°45' E 122°30'1 1.5
2016-Jan-23 11:32N 29°45' E 122°29'1 1.0
2016-Jan-23 10:30N 29°46' E 122°29'1 1.0
2016-Jan-23 09:32N 29°45' E 122°29'1 1.0
2016-Jan-23 08:32N 29°46' E 122°29'1 0.5
2016-Jan-23 07:31N 29°47' E 122°29'0 0.3
2016-Jan-23 06:32N 29°47' E 122°29'0 0.4
2016-Jan-23 05:23N 29°47' E 122°29'0 0.1
2016-Jan-23 04:24N 29°47' E 122°29'2 1.9
2016-Jan-23 03:33N 29°45' E 122°29'0 0.5
2016-Jan-23 02:33N 29°46' E 122°29'5 5.3
2016-Jan-23 01:32N 29°48' E 122°35'9 8.0
2016-Jan-23 00:24N 29°54' E 122°43'  
Track history (hours):
 
Tides and Currents Weather Stations Pressure Air Temp Water Temp Dewpoint Dewpoint Depression Visibility Wind Speed Wind Dir Waves Ship Positions

OOCL California

Last reported at 2016-Feb-01 20:11 UTC. Time now 2016-Feb-10 20:11 UTC.
Position N 01°13' E 103°40'.
Warning: this ship's position is 8 days out of date.

Length 276 m; beam 40 m; draft 14 m.

Type: Cargo ship. MMSI: 477704000.

Date/timePositionNaut miles runAvg speedWind from/ knotsBaromVisibWave heightAir tempDewpointWater temp
2016-Feb-01 20:11N 01°13' E 103°40'710.6
2016-Feb-01 19:33N 01°17' E 103°45'0 0.2
2016-Feb-01 18:29N 01°17' E 103°46'0 0.0
2016-Feb-01 17:30N 01°17' E 103°46'0 0.0
2016-Feb-01 16:32N 01°17' E 103°46'0 0.0
2016-Feb-01 15:32N 01°17' E 103°46'0 0.0
2016-Feb-01 14:32N 01°17' E 103°46'0 0.0
2016-Feb-01 13:29N 01°17' E 103°46'0 0.0
2016-Feb-01 12:29N 01°17' E 103°46'0 0.0
2016-Feb-01 11:29N 01°17' E 103°46'0 0.0
2016-Feb-01 10:32N 01°17' E 103°46'0 0.0
2016-Feb-01 09:32N 01°17' E 103°46'0 0.0
2016-Feb-01 08:20N 01°17' E 103°46'0 0.0
2016-Feb-01 06:32N 01°17' E 103°46'0 0.0
2016-Feb-01 05:29N 01°17' E 103°46'0 0.0
2016-Feb-01 04:29N 01°17' E 103°46'0 0.0
2016-Feb-01 03:32N 01°17' E 103°46'0 0.0
2016-Feb-01 02:32N 01°17' E 103°46'0 0.0
2016-Feb-01 01:32N 01°17' E 103°46'0 0.5
2016-Feb-01 00:33N 01°17' E 103°45'8 7.6
2016-Jan-31 23:33N 01°12' E 103°51'10 9.6
2016-Jan-31 22:33N 01°15' E 104°00'  
2016-Jan-28 13:32N 22°09' E 114°12'1111.2
2016-Jan-28 12:33N 22°19' E 114°05'10 9.6
2016-Jan-28 11:33N 22°21' E 113°55'7 0.4
2016-Jan-27 18:33N 22°21' E 114°03'1110.5
2016-Jan-27 17:30N 22°13' E 114°10'1414.3
2016-Jan-27 16:32N 22°08' E 114°24'24318.8
2016-Jan-27 03:33N 23°53' E 118°23'4815.4
2016-Jan-27 00:28N 24°24' E 119°02'1414.8
2016-Jan-26 23:30N 24°33' E 119°15'346 8.6
2016-Jan-25 07:29N 29°46' E 122°00'0 0.0
2016-Jan-25 06:18N 29°46' E 122°00'0 0.0
2016-Jan-25 05:33N 29°46' E 122°00'0 0.0
2016-Jan-25 04:29N 29°46' E 122°00'0 0.1
2016-Jan-25 03:29N 29°46' E 122°00'0 0.1
2016-Jan-25 02:33N 29°46' E 122°00'0 0.0
2016-Jan-25 01:31N 29°46' E 122°00'0 0.0
2016-Jan-25 00:33N 29°46' E 122°00'0 0.0
2016-Jan-24 23:33N 29°46' E 122°00'0 0.1
2016-Jan-24 22:33N 29°46' E 122°00'0 0.1
2016-Jan-24 21:32N 29°46' E 122°00'0 0.0
2016-Jan-24 20:33N 29°46' E 122°00'0 0.0
2016-Jan-24 19:33N 29°46' E 122°00'0 0.0
2016-Jan-24 18:33N 29°46' E 122°00'1 1.5
2016-Jan-24 17:33N 29°47' E 122°02'1010.4
2016-Jan-24 16:33N 29°50' E 122°13'9 9.1
2016-Jan-24 15:33N 29°45' E 122°22'6 1.0
2016-Jan-24 09:29N 29°48' E 122°28'3 3.2
2016-Jan-24 08:33N 29°46' E 122°30'1 1.0
2016-Jan-24 07:33N 29°45' E 122°29'1 0.7
2016-Jan-24 06:32N 29°45' E 122°30'0 0.1
2016-Jan-24 05:34N 29°45' E 122°30'1 0.6
2016-Jan-24 04:33N 29°45' E 122°30'0 0.4
2016-Jan-24 03:32N 29°45' E 122°30'1 0.5
2016-Jan-24 02:12N 29°46' E 122°29'0 0.1
2016-Jan-24 00:15N 29°46' E 122°29'2 3.5
2016-Jan-23 23:33N 29°44' E 122°28'2 1.6
2016-Jan-23 22:33N 29°45' E 122°29'1 0.8
2016-Jan-23 21:29N 29°46' E 122°29'0 0.3
2016-Jan-23 20:29N 29°46' E 122°30'0 0.4
2016-Jan-23 19:33N 29°45' E 122°30'0 0.2
2016-Jan-23 18:28N 29°45' E 122°29'1 1.1
2016-Jan-23 17:33N 29°45' E 122°30'0 0.1
2016-Jan-23 16:21N 29°45' E 122°30'1 1.5
2016-Jan-23 15:32N 29°46' E 122°29'0 0.2
2016-Jan-23 14:20N 29°46' E 122°29'1 0.3
2016-Jan-23 12:07N 29°45' E 122°30'1 1.5
2016-Jan-23 11:32N 29°45' E 122°29'1 1.0
2016-Jan-23 10:30N 29°46' E 122°29'1 1.0
2016-Jan-23 09:32N 29°45' E 122°29'1 1.0
2016-Jan-23 08:32N 29°46' E 122°29'1 0.5
2016-Jan-23 07:31N 29°47' E 122°29'0 0.3
2016-Jan-23 06:32N 29°47' E 122°29'0 0.4
2016-Jan-23 05:23N 29°47' E 122°29'0 0.1
2016-Jan-23 04:24N 29°47' E 122°29'2 1.9
2016-Jan-23 03:33N 29°45' E 122°29'0 0.5
2016-Jan-23 02:33N 29°46' E 122°29'5 5.3
2016-Jan-23 01:32N 29°48' E 122°35'9 8.0
2016-Jan-23 00:24N 29°54' E 122°43'  

Dump ship's entire track history